sensor_id;sensor_type;location;lat;lon;timestamp;temperature;humidity
3690;DHT22;1861;50.240;8.596;2023-04-01T00:00:53;12.20;99.90
3690;DHT22;1861;50.240;8.596;2023-04-01T00:03:23;12.20;99.90
3690;DHT22;1861;50.240;8.596;2023-04-01T00:05:54;12.20;99.90
3690;DHT22;1861;50.240;8.596;2023-04-01T00:08:23;12.20;99.90
3690;DHT22;1861;50.240;8.596;2023-04-01T00:10:51;12.10;99.90
3690;DHT22;1861;50.240;8.596;2023-04-01T00:13:20;12.10;99.90
3690;DHT22;1861;50.240;8.596;2023-04-01T00:15:48;12.20;99.90
3690;DHT22;1861;50.240;8.596;2023-04-01T00:18:16;12.20;99.90
3690;DHT22;1861;50.240;8.596;2023-04-01T00:20:45;12.20;99.90
3690;DHT22;1861;50.240;8.596;2023-04-01T00:23:15;12.20;99.90
3690;DHT22;1861;50.240;8.596;2023-04-01T00:25:44;12.20;99.90
3690;DHT22;1861;50.240;8.596;2023-04-01T00:28:16;12.20;99.90
3690;DHT22;1861;50.240;8.596;2023-04-01T00:30:44;12.10;99.90
3690;DHT22;1861;50.240;8.596;2023-04-01T00:33:12;12.20;99.90
3690;DHT22;1861;50.240;8.596;2023-04-01T00:35:40;12.20;99.90
3690;DHT22;1861;50.240;8.596;2023-04-01T00:38:08;12.20;99.90
3690;DHT22;1861;50.240;8.596;2023-04-01T00:40:41;12.20;99.90
3690;DHT22;1861;50.240;8.596;2023-04-01T00:43:12;12.20;99.90
3690;DHT22;1861;50.240;8.596;2023-04-01T00:45:42;12.20;99.90
3690;DHT22;1861;50.240;8.596;2023-04-01T00:48:13;12.10;99.90
3690;DHT22;1861;50.240;8.596;2023-04-01T00:50:44;12.20;99.90
3690;DHT22;1861;50.240;8.596;2023-04-01T00:53:14;12.10;99.90
3690;DHT22;1861;50.240;8.596;2023-04-01T00:55:49;12.10;99.90
3690;DHT22;1861;50.240;8.596;2023-04-01T00:58:21;12.10;99.90
3690;DHT22;1861;50.240;8.596;2023-04-01T01:00:52;12.10;99.90
3690;DHT22;1861;50.240;8.596;2023-04-01T01:03:21;12.20;99.90
3690;DHT22;1861;50.240;8.596;2023-04-01T01:06:07;12.10;99.90
3690;DHT22;1861;50.240;8.596;2023-04-01T01:08:47;12.10;99.90
3690;DHT22;1861;50.240;8.596;2023-04-01T01:11:26;12.10;99.90
3690;DHT22;1861;50.240;8.596;2023-04-01T01:14:15;12.10;99.90
3690;DHT22;1861;50.240;8.596;2023-04-01T01:16:50;12.10;99.90
3690;DHT22;1861;50.240;8.596;2023-04-01T01:19:39;12.10;99.90
3690;DHT22;1861;50.240;8.596;2023-04-01T01:22:25;12.10;99.90
3690;DHT22;1861;50.240;8.596;2023-04-01T01:25:16;12.10;99.90
3690;DHT22;1861;50.240;8.596;2023-04-01T01:27:56;12.20;99.90
3690;DHT22;1861;50.240;8.596;2023-04-01T01:30:37;12.20;99.90
3690;DHT22;1861;50.240;8.596;2023-04-01T01:36:03;12.10;99.90
3690;DHT22;1861;50.240;8.596;2023-04-01T01:38:34;12.10;99.90
3690;DHT22;1861;50.240;8.596;2023-04-01T01:41:05;12.10;99.90
3690;DHT22;1861;50.240;8.596;2023-04-01T01:43:38;12.10;99.90
3690;DHT22;1861;50.240;8.596;2023-04-01T01:46:10;12.00;99.90
3690;DHT22;1861;50.240;8.596;2023-04-01T01:48:41;12.00;99.90
3690;DHT22;1861;50.240;8.596;2023-04-01T01:51:12;12.00;99.90
3690;DHT22;1861;50.240;8.596;2023-04-01T01:53:40;12.00;99.90
3690;DHT22;1861;50.240;8.596;2023-04-01T01:56:11;12.00;99.90
3690;DHT22;1861;50.240;8.596;2023-04-01T01:58:43;12.00;99.90
3690;DHT22;1861;50.240;8.596;2023-04-01T02:01:17;12.00;99.90
3690;DHT22;1861;50.240;8.596;2023-04-01T02:03:47;12.00;99.90
3690;DHT22;1861;50.240;8.596;2023-04-01T02:06:19;11.90;99.90
3690;DHT22;1861;50.240;8.596;2023-04-01T02:08:50;11.90;99.90
3690;DHT22;1861;50.240;8.596;2023-04-01T02:11:24;11.90;99.90
3690;DHT22;1861;50.240;8.596;2023-04-01T02:13:56;11.90;99.90
3690;DHT22;1861;50.240;8.596;2023-04-01T02:16:28;12.00;99.90
3690;DHT22;1861;50.240;8.596;2023-04-01T02:18:58;11.90;99.90
3690;DHT22;1861;50.240;8.596;2023-04-01T02:21:31;12.00;99.90
3690;DHT22;1861;50.240;8.596;2023-04-01T02:24:02;12.00;99.90
3690;DHT22;1861;50.240;8.596;2023-04-01T02:26:34;11.90;99.90
3690;DHT22;1861;50.240;8.596;2023-04-01T02:29:03;11.90;99.90
3690;DHT22;1861;50.240;8.596;2023-04-01T02:31:33;12.00;99.90
3690;DHT22;1861;50.240;8.596;2023-04-01T02:34:02;11.90;99.90
3690;DHT22;1861;50.240;8.596;2023-04-01T02:36:32;11.90;99.90
3690;DHT22;1861;50.240;8.596;2023-04-01T02:39:03;12.00;99.90
3690;DHT22;1861;50.240;8.596;2023-04-01T02:41:31;12.00;99.90
3690;DHT22;1861;50.240;8.596;2023-04-01T02:43:59;12.00;99.90
3690;DHT22;1861;50.240;8.596;2023-04-01T02:46:27;11.90;99.90
3690;DHT22;1861;50.240;8.596;2023-04-01T02:48:55;11.90;99.90
3690;DHT22;1861;50.240;8.596;2023-04-01T02:51:23;11.90;99.90
3690;DHT22;1861;50.240;8.596;2023-04-01T02:53:54;12.00;99.90
3690;DHT22;1861;50.240;8.596;2023-04-01T02:56:22;12.00;99.90
3690;DHT22;1861;50.240;8.596;2023-04-01T02:58:50;12.00;99.90
3690;DHT22;1861;50.240;8.596;2023-04-01T03:01:19;12.00;99.90
3690;DHT22;1861;50.240;8.596;2023-04-01T03:03:47;11.90;99.90
3690;DHT22;1861;50.240;8.596;2023-04-01T03:06:16;11.90;99.90
3690;DHT22;1861;50.240;8.596;2023-04-01T03:08:44;11.90;99.90
3690;DHT22;1861;50.240;8.596;2023-04-01T03:11:14;11.90;99.90
3690;DHT22;1861;50.240;8.596;2023-04-01T03:13:42;11.90;99.90
3690;DHT22;1861;50.240;8.596;2023-04-01T03:16:11;11.90;99.90
3690;DHT22;1861;50.240;8.596;2023-04-01T03:18:40;12.00;99.90
3690;DHT22;1861;50.240;8.596;2023-04-01T03:21:15;11.90;99.90
3690;DHT22;1861;50.240;8.596;2023-04-01T03:23:43;11.90;99.90
3690;DHT22;1861;50.240;8.596;2023-04-01T03:26:13;12.00;99.90
3690;DHT22;1861;50.240;8.596;2023-04-01T03:28:42;11.80;99.90
3690;DHT22;1861;50.240;8.596;2023-04-01T03:31:11;11.80;99.90
3690;DHT22;1861;50.240;8.596;2023-04-01T03:33:46;11.80;99.90
3690;DHT22;1861;50.240;8.596;2023-04-01T03:36:14;11.80;99.90
3690;DHT22;1861;50.240;8.596;2023-04-01T03:38:43;11.80;99.90
3690;DHT22;1861;50.240;8.596;2023-04-01T03:41:18;11.70;99.90
3690;DHT22;1861;50.240;8.596;2023-04-01T03:43:46;11.80;99.90
3690;DHT22;1861;50.240;8.596;2023-04-01T03:46:17;11.80;99.90
3690;DHT22;1861;50.240;8.596;2023-04-01T03:48:46;11.80;99.90
3690;DHT22;1861;50.240;8.596;2023-04-01T03:51:14;11.80;99.90
3690;DHT22;1861;50.240;8.596;2023-04-01T03:53:42;11.80;99.90
3690;DHT22;1861;50.240;8.596;2023-04-01T03:56:11;11.80;99.90
3690;DHT22;1861;50.240;8.596;2023-04-01T03:58:40;11.70;99.90
3690;DHT22;1861;50.240;8.596;2023-04-01T04:01:17;11.70;99.90
3690;DHT22;1861;50.240;8.596;2023-04-01T04:03:46;11.70;99.90
3690;DHT22;1861;50.240;8.596;2023-04-01T04:06:17;11.70;99.90
3690;DHT22;1861;50.240;8.596;2023-04-01T04:08:46;11.80;99.90
3690;DHT22;1861;50.240;8.596;2023-04-01T04:11:15;11.80;99.90
3690;DHT22;1861;50.240;8.596;2023-04-01T04:13:44;11.70;99.90
3690;DHT22;1861;50.240;8.596;2023-04-01T04:16:15;11.70;99.90
3690;DHT22;1861;50.240;8.596;2023-04-01T04:18:48;11.60;99.90
3690;DHT22;1861;50.240;8.596;2023-04-01T04:21:17;11.70;99.90
3690;DHT22;1861;50.240;8.596;2023-04-01T04:23:46;11.70;99.90
3690;DHT22;1861;50.240;8.596;2023-04-01T04:26:16;11.70;99.90
3690;DHT22;1861;50.240;8.596;2023-04-01T04:28:53;11.70;99.90
3690;DHT22;1861;50.240;8.596;2023-04-01T04:31:23;11.70;99.90
3690;DHT22;1861;50.240;8.596;2023-04-01T04:33:54;11.70;99.90
3690;DHT22;1861;50.240;8.596;2023-04-01T04:36:22;11.60;99.90
3690;DHT22;1861;50.240;8.596;2023-04-01T04:38:51;11.70;99.90
3690;DHT22;1861;50.240;8.596;2023-04-01T04:41:20;11.70;99.90
3690;DHT22;1861;50.240;8.596;2023-04-01T04:43:50;11.70;99.90
3690;DHT22;1861;50.240;8.596;2023-04-01T04:46:20;11.60;99.90
3690;DHT22;1861;50.240;8.596;2023-04-01T04:48:53;11.60;99.90
3690;DHT22;1861;50.240;8.596;2023-04-01T04:51:22;11.60;99.90
3690;DHT22;1861;50.240;8.596;2023-04-01T04:53:51;11.60;99.90
3690;DHT22;1861;50.240;8.596;2023-04-01T04:56:26;11.60;99.90
3690;DHT22;1861;50.240;8.596;2023-04-01T04:59:03;11.60;99.90
3690;DHT22;1861;50.240;8.596;2023-04-01T05:01:42;11.60;99.90
3690;DHT22;1861;50.240;8.596;2023-04-01T05:04:11;11.60;99.90
3690;DHT22;1861;50.240;8.596;2023-04-01T05:06:39;11.60;99.90
3690;DHT22;1861;50.240;8.596;2023-04-01T05:09:07;11.60;99.90
3690;DHT22;1861;50.240;8.596;2023-04-01T05:11:35;11.60;99.90
3690;DHT22;1861;50.240;8.596;2023-04-01T05:14:04;11.60;99.90
3690;DHT22;1861;50.240;8.596;2023-04-01T05:16:32;11.60;99.90
3690;DHT22;1861;50.240;8.596;2023-04-01T05:19:02;11.70;99.90
3690;DHT22;1861;50.240;8.596;2023-04-01T05:21:31;11.70;99.90
3690;DHT22;1861;50.240;8.596;2023-04-01T05:24:00;11.70;99.90
3690;DHT22;1861;50.240;8.596;2023-04-01T05:26:29;11.60;99.90
3690;DHT22;1861;50.240;8.596;2023-04-01T05:28:59;11.60;99.90
3690;DHT22;1861;50.240;8.596;2023-04-01T05:31:27;11.60;99.90
3690;DHT22;1861;50.240;8.596;2023-04-01T05:33:57;11.60;99.90
3690;DHT22;1861;50.240;8.596;2023-04-01T05:36:26;11.60;99.90
3690;DHT22;1861;50.240;8.596;2023-04-01T05:38:55;11.60;99.90
3690;DHT22;1861;50.240;8.596;2023-04-01T05:41:26;11.60;99.90
3690;DHT22;1861;50.240;8.596;2023-04-01T05:43:54;11.60;99.90
3690;DHT22;1861;50.240;8.596;2023-04-01T05:46:51;11.60;99.90
3690;DHT22;1861;50.240;8.596;2023-04-01T05:49:22;11.60;99.90
3690;DHT22;1861;50.240;8.596;2023-04-01T05:51:54;11.60;99.90
3690;DHT22;1861;50.240;8.596;2023-04-01T05:54:22;11.60;99.90
3690;DHT22;1861;50.240;8.596;2023-04-01T05:56:51;11.60;99.90
3690;DHT22;1861;50.240;8.596;2023-04-01T05:59:19;11.60;99.90
3690;DHT22;1861;50.240;8.596;2023-04-01T06:01:48;11.60;99.90
3690;DHT22;1861;50.240;8.596;2023-04-01T06:04:17;11.60;99.90
3690;DHT22;1861;50.240;8.596;2023-04-01T06:06:45;11.50;99.90
3690;DHT22;1861;50.240;8.596;2023-04-01T06:09:16;11.50;99.90
3690;DHT22;1861;50.240;8.596;2023-04-01T06:12:04;11.60;99.90
3690;DHT22;1861;50.240;8.596;2023-04-01T06:15:15;11.60;99.90
3690;DHT22;1861;50.240;8.596;2023-04-01T06:17:57;11.60;99.90
3690;DHT22;1861;50.240;8.596;2023-04-01T06:20:37;11.50;99.90
3690;DHT22;1861;50.240;8.596;2023-04-01T06:23:23;11.60;99.90
3690;DHT22;1861;50.240;8.596;2023-04-01T06:26:06;11.50;99.90
3690;DHT22;1861;50.240;8.596;2023-04-01T06:29:08;11.50;99.90
3690;DHT22;1861;50.240;8.596;2023-04-01T06:32:00;11.50;99.90
3690;DHT22;1861;50.240;8.596;2023-04-01T06:44:13;11.60;99.90
3690;DHT22;1861;50.240;8.596;2023-04-01T06:47:17;11.60;99.90
3690;DHT22;1861;50.240;8.596;2023-04-01T06:50:12;11.70;99.90
3690;DHT22;1861;50.240;8.596;2023-04-01T06:53:00;11.60;99.90
3690;DHT22;1861;50.240;8.596;2023-04-01T06:55:55;11.70;99.90
3690;DHT22;1861;50.240;8.596;2023-04-01T06:58:53;11.50;99.90
3690;DHT22;1861;50.240;8.596;2023-04-01T07:01:26;11.60;99.90
3690;DHT22;1861;50.240;8.596;2023-04-01T07:03:58;11.60;99.90
3690;DHT22;1861;50.240;8.596;2023-04-01T07:06:31;11.70;99.90
3690;DHT22;1861;50.240;8.596;2023-04-01T07:09:05;11.60;99.90
3690;DHT22;1861;50.240;8.596;2023-04-01T07:12:00;11.70;99.90
3690;DHT22;1861;50.240;8.596;2023-04-01T07:14:49;11.60;99.90
3690;DHT22;1861;50.240;8.596;2023-04-01T07:17:20;11.70;99.90
3690;DHT22;1861;50.240;8.596;2023-04-01T07:19:53;11.70;99.90
3690;DHT22;1861;50.240;8.596;2023-04-01T07:22:29;11.60;99.90
3690;DHT22;1861;50.240;8.596;2023-04-01T07:25:12;11.60;99.90
3690;DHT22;1861;50.240;8.596;2023-04-01T07:27:43;11.70;99.90
3690;DHT22;1861;50.240;8.596;2023-04-01T07:30:16;11.70;99.90
3690;DHT22;1861;50.240;8.596;2023-04-01T07:32:48;11.70;99.90
3690;DHT22;1861;50.240;8.596;2023-04-01T07:35:24;11.80;99.90
3690;DHT22;1861;50.240;8.596;2023-04-01T07:38:07;11.80;99.90
3690;DHT22;1861;50.240;8.596;2023-04-01T07:40:43;11.80;99.90
3690;DHT22;1861;50.240;8.596;2023-04-01T07:43:29;11.80;99.90
3690;DHT22;1861;50.240;8.596;2023-04-01T07:46:25;11.90;99.90
3690;DHT22;1861;50.240;8.596;2023-04-01T07:49:02;11.90;99.90
3690;DHT22;1861;50.240;8.596;2023-04-01T07:51:36;11.90;99.90
3690;DHT22;1861;50.240;8.596;2023-04-01T07:54:08;12.00;99.90
3690;DHT22;1861;50.240;8.596;2023-04-01T07:56:45;11.90;99.90
3690;DHT22;1861;50.240;8.596;2023-04-01T07:59:31;11.80;99.90
3690;DHT22;1861;50.240;8.596;2023-04-01T08:02:24;11.90;99.90
3690;DHT22;1861;50.240;8.596;2023-04-01T08:05:00;11.80;99.90
3690;DHT22;1861;50.240;8.596;2023-04-01T08:07:38;11.90;99.90
3690;DHT22;1861;50.240;8.596;2023-04-01T08:10:45;11.90;99.90
3690;DHT22;1861;50.240;8.596;2023-04-01T08:13:37;12.00;99.90
3690;DHT22;1861;50.240;8.596;2023-04-01T08:16:32;12.00;99.90
3690;DHT22;1861;50.240;8.596;2023-04-01T08:19:18;12.10;99.90
3690;DHT22;1861;50.240;8.596;2023-04-01T08:21:55;12.10;99.90
3690;DHT22;1861;50.240;8.596;2023-04-01T08:24:29;12.10;99.90
3690;DHT22;1861;50.240;8.596;2023-04-01T08:27:19;12.00;99.90
3690;DHT22;1861;50.240;8.596;2023-04-01T08:29:56;12.10;99.90
3690;DHT22;1861;50.240;8.596;2023-04-01T08:32:28;12.10;99.90
3690;DHT22;1861;50.240;8.596;2023-04-01T08:35:07;12.10;99.90
3690;DHT22;1861;50.240;8.596;2023-04-01T08:37:39;12.10;99.90
3690;DHT22;1861;50.240;8.596;2023-04-01T08:40:28;12.10;99.90
3690;DHT22;1861;50.240;8.596;2023-04-01T08:43:07;12.10;99.90
3690;DHT22;1861;50.240;8.596;2023-04-01T08:45:56;12.10;99.90
3690;DHT22;1861;50.240;8.596;2023-04-01T08:48:49;12.10;99.90
3690;DHT22;1861;50.240;8.596;2023-04-01T08:51:54;12.10;99.90
3690;DHT22;1861;50.240;8.596;2023-04-01T08:54:43;12.10;99.90
3690;DHT22;1861;50.240;8.596;2023-04-01T08:57:21;12.10;99.90
3690;DHT22;1861;50.240;8.596;2023-04-01T09:00:30;12.10;99.90
3690;DHT22;1861;50.240;8.596;2023-04-01T09:06:29;12.10;99.90
3690;DHT22;1861;50.240;8.596;2023-04-01T09:09:22;12.10;99.90
3690;DHT22;1861;50.240;8.596;2023-04-01T09:15:15;12.10;99.90
3690;DHT22;1861;50.240;8.596;2023-04-01T09:18:04;12.10;99.90
3690;DHT22;1861;50.240;8.596;2023-04-01T09:20:56;12.10;99.90
3690;DHT22;1861;50.240;8.596;2023-04-01T09:23:42;12.20;99.90
3690;DHT22;1861;50.240;8.596;2023-04-01T09:26:51;12.20;99.90
3690;DHT22;1861;50.240;8.596;2023-04-01T09:29:41;12.20;99.90
3690;DHT22;1861;50.240;8.596;2023-04-01T09:32:40;12.20;99.90
3690;DHT22;1861;50.240;8.596;2023-04-01T09:35:22;12.20;99.90
3690;DHT22;1861;50.240;8.596;2023-04-01T09:37:58;12.20;99.90
3690;DHT22;1861;50.240;8.596;2023-04-01T09:40:37;12.30;99.90
3690;DHT22;1861;50.240;8.596;2023-04-01T09:43:39;12.40;99.90
3690;DHT22;1861;50.240;8.596;2023-04-01T09:46:18;12.30;99.90
3690;DHT22;1861;50.240;8.596;2023-04-01T09:52:15;12.40;99.90
3690;DHT22;1861;50.240;8.596;2023-04-01T09:54:57;12.40;99.90
3690;DHT22;1861;50.240;8.596;2023-04-01T09:57:40;12.40;99.90
3690;DHT22;1861;50.240;8.596;2023-04-01T10:01:14;12.40;99.90
3690;DHT22;1861;50.240;8.596;2023-04-01T10:04:15;12.40;99.90
3690;DHT22;1861;50.240;8.596;2023-04-01T10:07:06;12.40;99.90
3690;DHT22;1861;50.240;8.596;2023-04-01T10:13:25;12.40;99.90
3690;DHT22;1861;50.240;8.596;2023-04-01T10:16:29;12.40;99.90
3690;DHT22;1861;50.240;8.596;2023-04-01T10:19:45;12.40;99.90
3690;DHT22;1861;50.240;8.596;2023-04-01T10:32:01;12.50;99.90
3690;DHT22;1861;50.240;8.596;2023-04-01T10:34:53;12.40;99.90
3690;DHT22;1861;50.240;8.596;2023-04-01T10:37:41;12.40;99.90
3690;DHT22;1861;50.240;8.596;2023-04-01T10:40:26;12.40;99.90
3690;DHT22;1861;50.240;8.596;2023-04-01T10:43:50;12.40;99.90
3690;DHT22;1861;50.240;8.596;2023-04-01T10:52:56;12.40;99.90
3690;DHT22;1861;50.240;8.596;2023-04-01T10:56:29;12.30;99.90
3690;DHT22;1861;50.240;8.596;2023-04-01T10:59:36;12.40;99.90
3690;DHT22;1861;50.240;8.596;2023-04-01T11:07:12;12.40;99.90
3690;DHT22;1861;50.240;8.596;2023-04-01T11:10:11;12.40;99.90
3690;DHT22;1861;50.240;8.596;2023-04-01T11:13:21;12.40;99.90
3690;DHT22;1861;50.240;8.596;2023-04-01T11:22:12;12.50;99.90
3690;DHT22;1861;50.240;8.596;2023-04-01T11:25:13;12.50;99.90
3690;DHT22;1861;50.240;8.596;2023-04-01T11:34:33;12.50;99.90
3690;DHT22;1861;50.240;8.596;2023-04-01T11:37:12;12.40;99.90
3690;DHT22;1861;50.240;8.596;2023-04-01T11:40:11;12.50;99.90
3690;DHT22;1861;50.240;8.596;2023-04-01T11:43:09;12.50;99.90
3690;DHT22;1861;50.240;8.596;2023-04-01T11:46:17;12.50;99.90
3690;DHT22;1861;50.240;8.596;2023-04-01T11:48:57;12.40;99.90
3690;DHT22;1861;50.240;8.596;2023-04-01T11:51:55;12.40;99.90
3690;DHT22;1861;50.240;8.596;2023-04-01T11:54:40;12.40;99.90
3690;DHT22;1861;50.240;8.596;2023-04-01T11:57:29;12.40;99.90
3690;DHT22;1861;50.240;8.596;2023-04-01T12:00:18;12.40;99.90
3690;DHT22;1861;50.240;8.596;2023-04-01T12:03:01;12.40;99.90
3690;DHT22;1861;50.240;8.596;2023-04-01T12:05:41;12.40;99.90
3690;DHT22;1861;50.240;8.596;2023-04-01T12:08:19;12.50;99.90
3690;DHT22;1861;50.240;8.596;2023-04-01T12:10:55;12.50;99.90
3690;DHT22;1861;50.240;8.596;2023-04-01T12:13:32;12.50;99.90
3690;DHT22;1861;50.240;8.596;2023-04-01T12:16:15;12.60;99.90
3690;DHT22;1861;50.240;8.596;2023-04-01T12:18:51;12.60;99.90
3690;DHT22;1861;50.240;8.596;2023-04-01T12:21:25;12.70;99.90
3690;DHT22;1861;50.240;8.596;2023-04-01T12:24:13;12.60;99.90
3690;DHT22;1861;50.240;8.596;2023-04-01T12:26:52;12.70;99.90
3690;DHT22;1861;50.240;8.596;2023-04-01T12:29:48;12.70;99.90
3690;DHT22;1861;50.240;8.596;2023-04-01T12:32:25;12.70;99.90
3690;DHT22;1861;50.240;8.596;2023-04-01T12:35:18;12.80;99.90
3690;DHT22;1861;50.240;8.596;2023-04-01T12:38:01;12.80;99.90
3690;DHT22;1861;50.240;8.596;2023-04-01T12:41:00;12.80;99.90
3690;DHT22;1861;50.240;8.596;2023-04-01T12:43:48;12.90;99.90
3690;DHT22;1861;50.240;8.596;2023-04-01T12:46:24;12.80;99.90
3690;DHT22;1861;50.240;8.596;2023-04-01T12:49:21;12.80;99.90
3690;DHT22;1861;50.240;8.596;2023-04-01T12:52:04;12.70;99.90
3690;DHT22;1861;50.240;8.596;2023-04-01T12:55:00;12.70;99.90
3690;DHT22;1861;50.240;8.596;2023-04-01T13:00:54;12.70;99.90
3690;DHT22;1861;50.240;8.596;2023-04-01T13:03:47;12.80;99.90
3690;DHT22;1861;50.240;8.596;2023-04-01T13:06:30;12.80;99.90
3690;DHT22;1861;50.240;8.596;2023-04-01T13:09:08;12.80;99.90
3690;DHT22;1861;50.240;8.596;2023-04-01T13:11:52;12.80;99.90
3690;DHT22;1861;50.240;8.596;2023-04-01T13:14:46;12.80;99.90
3690;DHT22;1861;50.240;8.596;2023-04-01T13:17:22;12.80;99.90
3690;DHT22;1861;50.240;8.596;2023-04-01T13:19:57;12.90;99.90
3690;DHT22;1861;50.240;8.596;2023-04-01T13:22:45;12.90;99.90
3690;DHT22;1861;50.240;8.596;2023-04-01T13:25:21;13.00;99.90
3690;DHT22;1861;50.240;8.596;2023-04-01T13:27:58;13.10;99.90
3690;DHT22;1861;50.240;8.596;2023-04-01T13:30:34;13.10;99.90
3690;DHT22;1861;50.240;8.596;2023-04-01T13:33:15;13.10;99.90
3690;DHT22;1861;50.240;8.596;2023-04-01T13:35:48;13.10;99.90
3690;DHT22;1861;50.240;8.596;2023-04-01T13:38:41;13.00;99.90
3690;DHT22;1861;50.240;8.596;2023-04-01T13:41:20;13.00;99.90
3690;DHT22;1861;50.240;8.596;2023-04-01T13:43:55;13.00;99.90
3690;DHT22;1861;50.240;8.596;2023-04-01T13:46:36;13.00;99.90
3690;DHT22;1861;50.240;8.596;2023-04-01T13:52:37;12.90;99.90
3690;DHT22;1861;50.240;8.596;2023-04-01T13:55:22;12.90;99.90
3690;DHT22;1861;50.240;8.596;2023-04-01T13:58:11;12.90;99.90
3690;DHT22;1861;50.240;8.596;2023-04-01T14:00:54;12.90;99.90
3690;DHT22;1861;50.240;8.596;2023-04-01T14:03:55;12.80;99.90
3690;DHT22;1861;50.240;8.596;2023-04-01T14:06:35;12.80;99.90
3690;DHT22;1861;50.240;8.596;2023-04-01T14:09:31;12.80;99.90
3690;DHT22;1861;50.240;8.596;2023-04-01T14:12:06;12.80;99.90
3690;DHT22;1861;50.240;8.596;2023-04-01T14:14:51;12.90;99.90
3690;DHT22;1861;50.240;8.596;2023-04-01T14:17:31;13.00;99.90
3690;DHT22;1861;50.240;8.596;2023-04-01T14:20:33;13.10;99.90
3690;DHT22;1861;50.240;8.596;2023-04-01T14:23:16;13.10;99.90
3690;DHT22;1861;50.240;8.596;2023-04-01T14:29:21;13.20;99.90
3690;DHT22;1861;50.240;8.596;2023-04-01T14:32:02;13.20;99.90
3690;DHT22;1861;50.240;8.596;2023-04-01T14:34:43;13.20;99.90
3690;DHT22;1861;50.240;8.596;2023-04-01T14:37:40;13.20;99.90
3690;DHT22;1861;50.240;8.596;2023-04-01T14:40:25;13.20;99.90
3690;DHT22;1861;50.240;8.596;2023-04-01T14:43:04;13.20;99.90
3690;DHT22;1861;50.240;8.596;2023-04-01T14:46:00;13.20;99.90
3690;DHT22;1861;50.240;8.596;2023-04-01T14:48:33;13.10;99.90
3690;DHT22;1861;50.240;8.596;2023-04-01T14:51:09;13.20;99.90
3690;DHT22;1861;50.240;8.596;2023-04-01T14:53:41;13.30;99.90
3690;DHT22;1861;50.240;8.596;2023-04-01T14:56:37;13.30;99.90
3690;DHT22;1861;50.240;8.596;2023-04-01T14:59:10;13.30;99.90
3690;DHT22;1861;50.240;8.596;2023-04-01T15:01:45;13.40;99.90
3690;DHT22;1861;50.240;8.596;2023-04-01T15:04:37;13.30;99.90
3690;DHT22;1861;50.240;8.596;2023-04-01T15:07:28;13.20;99.90
3690;DHT22;1861;50.240;8.596;2023-04-01T15:10:02;13.20;99.90
3690;DHT22;1861;50.240;8.596;2023-04-01T15:12:41;13.10;99.90
3690;DHT22;1861;50.240;8.596;2023-04-01T15:15:22;13.10;99.90
3690;DHT22;1861;50.240;8.596;2023-04-01T15:18:05;13.00;99.90
3690;DHT22;1861;50.240;8.596;2023-04-01T15:21:11;13.00;99.90
3690;DHT22;1861;50.240;8.596;2023-04-01T15:23:53;13.00;99.90
3690;DHT22;1861;50.240;8.596;2023-04-01T15:29:43;12.90;99.90
3690;DHT22;1861;50.240;8.596;2023-04-01T15:32:21;12.90;99.90
3690;DHT22;1861;50.240;8.596;2023-04-01T15:34:57;12.90;99.90
3690;DHT22;1861;50.240;8.596;2023-04-01T15:37:34;12.90;99.90
3690;DHT22;1861;50.240;8.596;2023-04-01T15:40:14;13.00;99.90
3690;DHT22;1861;50.240;8.596;2023-04-01T15:42:54;13.00;99.90
3690;DHT22;1861;50.240;8.596;2023-04-01T15:45:40;13.10;99.90
3690;DHT22;1861;50.240;8.596;2023-04-01T15:48:31;13.00;99.90
3690;DHT22;1861;50.240;8.596;2023-04-01T15:51:25;13.00;99.90
3690;DHT22;1861;50.240;8.596;2023-04-01T15:57:09;13.00;99.90
3690;DHT22;1861;50.240;8.596;2023-04-01T15:59:54;13.00;99.90
3690;DHT22;1861;50.240;8.596;2023-04-01T16:02:45;13.00;99.90
3690;DHT22;1861;50.240;8.596;2023-04-01T16:05:37;13.00;99.90
3690;DHT22;1861;50.240;8.596;2023-04-01T16:11:23;13.00;99.90
3690;DHT22;1861;50.240;8.596;2023-04-01T16:14:02;13.00;99.90
3690;DHT22;1861;50.240;8.596;2023-04-01T16:16:47;13.00;99.90
3690;DHT22;1861;50.240;8.596;2023-04-01T16:19:37;12.90;99.90
3690;DHT22;1861;50.240;8.596;2023-04-01T16:22:13;12.90;99.90
3690;DHT22;1861;50.240;8.596;2023-04-01T16:24:46;12.80;99.90
3690;DHT22;1861;50.240;8.596;2023-04-01T16:27:18;12.80;99.90
3690;DHT22;1861;50.240;8.596;2023-04-01T16:29:53;12.90;99.90
3690;DHT22;1861;50.240;8.596;2023-04-01T16:32:34;12.90;99.90
3690;DHT22;1861;50.240;8.596;2023-04-01T16:35:23;12.90;99.90
3690;DHT22;1861;50.240;8.596;2023-04-01T16:37:56;12.90;99.90
3690;DHT22;1861;50.240;8.596;2023-04-01T16:40:37;12.90;99.90
3690;DHT22;1861;50.240;8.596;2023-04-01T16:43:13;12.90;99.90
3690;DHT22;1861;50.240;8.596;2023-04-01T16:45:52;12.80;99.90
3690;DHT22;1861;50.240;8.596;2023-04-01T16:48:25;12.80;99.90
3690;DHT22;1861;50.240;8.596;2023-04-01T16:50:59;12.70;99.90
3690;DHT22;1861;50.240;8.596;2023-04-01T16:53:36;12.70;99.90
3690;DHT22;1861;50.240;8.596;2023-04-01T16:56:12;12.60;99.90
3690;DHT22;1861;50.240;8.596;2023-04-01T16:58:55;12.70;99.90
3690;DHT22;1861;50.240;8.596;2023-04-01T17:01:29;12.60;99.90
3690;DHT22;1861;50.240;8.596;2023-04-01T17:03:59;12.70;99.90
3690;DHT22;1861;50.240;8.596;2023-04-01T17:06:36;12.60;99.90
3690;DHT22;1861;50.240;8.596;2023-04-01T17:09:23;12.50;99.90
3690;DHT22;1861;50.240;8.596;2023-04-01T17:11:57;12.50;99.90
3690;DHT22;1861;50.240;8.596;2023-04-01T17:14:34;12.40;99.90
3690;DHT22;1861;50.240;8.596;2023-04-01T17:17:24;12.40;99.90
3690;DHT22;1861;50.240;8.596;2023-04-01T17:20:24;12.40;99.90
3690;DHT22;1861;50.240;8.596;2023-04-01T17:22:59;12.40;99.90
3690;DHT22;1861;50.240;8.596;2023-04-01T17:25:37;12.30;99.90
3690;DHT22;1861;50.240;8.596;2023-04-01T17:28:22;12.30;99.90
3690;DHT22;1861;50.240;8.596;2023-04-01T17:30:56;12.30;99.90
3690;DHT22;1861;50.240;8.596;2023-04-01T17:33:54;12.30;99.90
3690;DHT22;1861;50.240;8.596;2023-04-01T17:36:36;12.30;99.90
3690;DHT22;1861;50.240;8.596;2023-04-01T17:39:35;12.30;99.90
3690;DHT22;1861;50.240;8.596;2023-04-01T17:42:10;12.30;99.90
3690;DHT22;1861;50.240;8.596;2023-04-01T17:44:49;12.40;99.90
3690;DHT22;1861;50.240;8.596;2023-04-01T17:47:34;12.40;99.90
3690;DHT22;1861;50.240;8.596;2023-04-01T17:50:22;12.40;99.90
3690;DHT22;1861;50.240;8.596;2023-04-01T17:53:07;12.30;99.90
3690;DHT22;1861;50.240;8.596;2023-04-01T17:55:54;12.30;99.90
3690;DHT22;1861;50.240;8.596;2023-04-01T17:58:29;12.30;99.90
3690;DHT22;1861;50.240;8.596;2023-04-01T18:01:15;12.30;99.90
3690;DHT22;1861;50.240;8.596;2023-04-01T18:04:11;12.30;99.90
3690;DHT22;1861;50.240;8.596;2023-04-01T18:06:56;12.20;99.90
3690;DHT22;1861;50.240;8.596;2023-04-01T18:09:34;12.20;99.90
3690;DHT22;1861;50.240;8.596;2023-04-01T18:12:13;12.30;99.90
3690;DHT22;1861;50.240;8.596;2023-04-01T18:14:59;12.20;99.90
3690;DHT22;1861;50.240;8.596;2023-04-01T18:17:42;12.30;99.90
3690;DHT22;1861;50.240;8.596;2023-04-01T18:20:30;12.30;99.90
3690;DHT22;1861;50.240;8.596;2023-04-01T18:23:04;12.30;99.90
3690;DHT22;1861;50.240;8.596;2023-04-01T18:25:41;12.20;99.90
3690;DHT22;1861;50.240;8.596;2023-04-01T18:28:21;12.20;99.90
3690;DHT22;1861;50.240;8.596;2023-04-01T18:30:52;12.30;99.90
3690;DHT22;1861;50.240;8.596;2023-04-01T18:33:25;12.20;99.90
3690;DHT22;1861;50.240;8.596;2023-04-01T18:36:08;12.20;99.90
3690;DHT22;1861;50.240;8.596;2023-04-01T18:38:40;12.20;99.90
3690;DHT22;1861;50.240;8.596;2023-04-01T18:41:14;12.10;99.90